sensor_id;sensor_type;location;lat;lon;timestamp;P1;durP1;ratioP1;P2;durP2;ratioP2
8831;SDS011;4452;50.756;4.472;2024-02-26T00:01:53;4.57;;;3.47;;
8831;SDS011;4452;50.756;4.472;2024-02-26T00:04:19;5.15;;;3.17;;
8831;SDS011;4452;50.756;4.472;2024-02-26T00:06:45;3.10;;;2.88;;
8831;SDS011;4452;50.756;4.472;2024-02-26T00:09:12;3.60;;;3.30;;
8831;SDS011;4452;50.756;4.472;2024-02-26T00:11:38;3.00;;;2.78;;
8831;SDS011;4452;50.756;4.472;2024-02-26T00:14:04;6.18;;;4.20;;
8831;SDS011;4452;50.756;4.472;2024-02-26T00:16:29;4.63;;;3.15;;
8831;SDS011;4452;50.756;4.472;2024-02-26T00:18:55;4.03;;;3.30;;
8831;SDS011;4452;50.756;4.472;2024-02-26T00:21:21;2.70;;;2.50;;
8831;SDS011;4452;50.756;4.472;2024-02-26T00:23:47;3.75;;;2.80;;
8831;SDS011;4452;50.756;4.472;2024-02-26T00:26:14;3.17;;;2.97;;
8831;SDS011;4452;50.756;4.472;2024-02-26T00:28:40;8.85;;;3.58;;
8831;SDS011;4452;50.756;4.472;2024-02-26T00:31:06;2.80;;;2.65;;
8831;SDS011;4452;50.756;4.472;2024-02-26T00:33:31;3.25;;;2.40;;
8831;SDS011;4452;50.756;4.472;2024-02-26T00:35:57;8.27;;;3.28;;
8831;SDS011;4452;50.756;4.472;2024-02-26T00:38:22;3.45;;;3.20;;
8831;SDS011;4452;50.756;4.472;2024-02-26T00:40:48;6.38;;;3.70;;
8831;SDS011;4452;50.756;4.472;2024-02-26T00:43:14;3.60;;;3.30;;
8831;SDS011;4452;50.756;4.472;2024-02-26T00:45:39;7.60;;;3.20;;
8831;SDS011;4452;50.756;4.472;2024-02-26T00:48:05;3.45;;;3.17;;
8831;SDS011;4452;50.756;4.472;2024-02-26T00:50:32;8.52;;;2.83;;
8831;SDS011;4452;50.756;4.472;2024-02-26T00:52:58;3.53;;;3.20;;
8831;SDS011;4452;50.756;4.472;2024-02-26T00:55:24;4.03;;;3.00;;
8831;SDS011;4452;50.756;4.472;2024-02-26T00:57:50;3.70;;;3.40;;
8831;SDS011;4452;50.756;4.472;2024-02-26T01:00:15;6.10;;;3.75;;
8831;SDS011;4452;50.756;4.472;2024-02-26T01:02:41;2.58;;;2.40;;
8831;SDS011;4452;50.756;4.472;2024-02-26T01:05:07;6.43;;;3.00;;
8831;SDS011;4452;50.756;4.472;2024-02-26T01:07:36;4.18;;;2.85;;
8831;SDS011;4452;50.756;4.472;2024-02-26T01:10:02;2.55;;;2.42;;
8831;SDS011;4452;50.756;4.472;2024-02-26T01:12:28;6.40;;;2.42;;
8831;SDS011;4452;50.756;4.472;2024-02-26T01:14:54;3.40;;;2.42;;
8831;SDS011;4452;50.756;4.472;2024-02-26T01:17:20;4.13;;;2.85;;
8831;SDS011;4452;50.756;4.472;2024-02-26T01:19:46;2.88;;;2.58;;
8831;SDS011;4452;50.756;4.472;2024-02-26T01:22:12;2.80;;;2.60;;
8831;SDS011;4452;50.756;4.472;2024-02-26T01:24:37;3.10;;;2.75;;
8831;SDS011;4452;50.756;4.472;2024-02-26T01:27:03;4.53;;;2.75;;
8831;SDS011;4452;50.756;4.472;2024-02-26T01:29:29;22.25;;;3.55;;
8831;SDS011;4452;50.756;4.472;2024-02-26T01:31:55;4.63;;;2.55;;
8831;SDS011;4452;50.756;4.472;2024-02-26T01:34:21;3.35;;;3.05;;
8831;SDS011;4452;50.756;4.472;2024-02-26T01:36:47;3.78;;;3.00;;
8831;SDS011;4452;50.756;4.472;2024-02-26T01:39:12;5.95;;;3.33;;
8831;SDS011;4452;50.756;4.472;2024-02-26T01:41:38;4.57;;;3.28;;
8831;SDS011;4452;50.756;4.472;2024-02-26T01:44:05;2.83;;;2.63;;
8831;SDS011;4452;50.756;4.472;2024-02-26T01:46:31;7.07;;;3.22;;
8831;SDS011;4452;50.756;4.472;2024-02-26T01:48:59;5.03;;;3.30;;
8831;SDS011;4452;50.756;4.472;2024-02-26T01:51:26;3.03;;;2.78;;
8831;SDS011;4452;50.756;4.472;2024-02-26T01:53:52;3.33;;;3.05;;
8831;SDS011;4452;50.756;4.472;2024-02-26T01:56:18;2.47;;;2.30;;
8831;SDS011;4452;50.756;4.472;2024-02-26T01:58:46;2.92;;;2.72;;
8831;SDS011;4452;50.756;4.472;2024-02-26T02:01:13;3.05;;;2.85;;
8831;SDS011;4452;50.756;4.472;2024-02-26T02:03:41;2.80;;;2.60;;
8831;SDS011;4452;50.756;4.472;2024-02-26T02:06:07;4.13;;;2.72;;
8831;SDS011;4452;50.756;4.472;2024-02-26T02:08:33;3.72;;;2.85;;
8831;SDS011;4452;50.756;4.472;2024-02-26T02:11:00;2.83;;;2.63;;
8831;SDS011;4452;50.756;4.472;2024-02-26T02:13:26;3.08;;;2.88;;
8831;SDS011;4452;50.756;4.472;2024-02-26T02:15:51;2.67;;;2.47;;
8831;SDS011;4452;50.756;4.472;2024-02-26T02:18:17;3.35;;;2.60;;
8831;SDS011;4452;50.756;4.472;2024-02-26T02:20:44;4.53;;;2.80;;
8831;SDS011;4452;50.756;4.472;2024-02-26T02:23:09;3.40;;;2.47;;
8831;SDS011;4452;50.756;4.472;2024-02-26T02:25:35;3.70;;;2.38;;
8831;SDS011;4452;50.756;4.472;2024-02-26T02:28:01;3.08;;;2.83;;
8831;SDS011;4452;50.756;4.472;2024-02-26T02:30:28;3.08;;;2.67;;
8831;SDS011;4452;50.756;4.472;2024-02-26T02:32:55;6.32;;;3.22;;
8831;SDS011;4452;50.756;4.472;2024-02-26T02:35:22;2.92;;;2.53;;
8831;SDS011;4452;50.756;4.472;2024-02-26T02:37:49;2.25;;;2.15;;
8831;SDS011;4452;50.756;4.472;2024-02-26T02:40:16;2.95;;;2.75;;
8831;SDS011;4452;50.756;4.472;2024-02-26T02:42:42;7.18;;;2.85;;
8831;SDS011;4452;50.756;4.472;2024-02-26T02:45:08;4.93;;;2.85;;
8831;SDS011;4452;50.756;4.472;2024-02-26T02:47:37;3.28;;;3.00;;
8831;SDS011;4452;50.756;4.472;2024-02-26T02:50:03;2.53;;;2.33;;
8831;SDS011;4452;50.756;4.472;2024-02-26T02:52:29;3.08;;;2.88;;
8831;SDS011;4452;50.756;4.472;2024-02-26T02:54:55;3.60;;;2.88;;
8831;SDS011;4452;50.756;4.472;2024-02-26T02:57:20;3.17;;;2.85;;
8831;SDS011;4452;50.756;4.472;2024-02-26T02:59:46;2.92;;;2.72;;
8831;SDS011;4452;50.756;4.472;2024-02-26T03:02:12;3.30;;;2.85;;
8831;SDS011;4452;50.756;4.472;2024-02-26T03:04:38;2.33;;;2.22;;
8831;SDS011;4452;50.756;4.472;2024-02-26T03:07:03;3.60;;;3.30;;
8831;SDS011;4452;50.756;4.472;2024-02-26T03:09:29;2.35;;;2.25;;
8831;SDS011;4452;50.756;4.472;2024-02-26T03:11:54;3.10;;;2.78;;
8831;SDS011;4452;50.756;4.472;2024-02-26T03:14:20;2.83;;;2.63;;
8831;SDS011;4452;50.756;4.472;2024-02-26T03:16:46;2.40;;;2.30;;
8831;SDS011;4452;50.756;4.472;2024-02-26T03:19:14;2.50;;;2.40;;
8831;SDS011;4452;50.756;4.472;2024-02-26T03:21:41;2.78;;;2.50;;
8831;SDS011;4452;50.756;4.472;2024-02-26T03:24:07;3.33;;;2.70;;
8831;SDS011;4452;50.756;4.472;2024-02-26T03:26:35;2.05;;;1.95;;
8831;SDS011;4452;50.756;4.472;2024-02-26T03:29:01;2.72;;;2.53;;
8831;SDS011;4452;50.756;4.472;2024-02-26T03:31:28;4.70;;;3.08;;
8831;SDS011;4452;50.756;4.472;2024-02-26T03:33:53;3.95;;;3.53;;
8831;SDS011;4452;50.756;4.472;2024-02-26T03:36:19;4.10;;;3.70;;
8831;SDS011;4452;50.756;4.472;2024-02-26T03:38:46;3.90;;;3.60;;
8831;SDS011;4452;50.756;4.472;2024-02-26T03:41:12;4.82;;;3.00;;
8831;SDS011;4452;50.756;4.472;2024-02-26T03:43:38;3.50;;;3.30;;
8831;SDS011;4452;50.756;4.472;2024-02-26T03:46:06;3.45;;;3.15;;
8831;SDS011;4452;50.756;4.472;2024-02-26T03:48:32;5.80;;;3.50;;
8831;SDS011;4452;50.756;4.472;2024-02-26T03:50:58;7.05;;;4.00;;
8831;SDS011;4452;50.756;4.472;2024-02-26T03:53:23;3.95;;;3.65;;
8831;SDS011;4452;50.756;4.472;2024-02-26T03:55:49;3.75;;;3.45;;
8831;SDS011;4452;50.756;4.472;2024-02-26T03:58:17;3.90;;;3.55;;
8831;SDS011;4452;50.756;4.472;2024-02-26T04:00:42;4.35;;;4.00;;
8831;SDS011;4452;50.756;4.472;2024-02-26T04:03:08;4.70;;;4.32;;
8831;SDS011;4452;50.756;4.472;2024-02-26T04:05:34;5.82;;;4.38;;
8831;SDS011;4452;50.756;4.472;2024-02-26T04:08:00;4.95;;;4.53;;
8831;SDS011;4452;50.756;4.472;2024-02-26T04:10:26;6.55;;;3.80;;
8831;SDS011;4452;50.756;4.472;2024-02-26T04:12:51;4.57;;;4.18;;
8831;SDS011;4452;50.756;4.472;2024-02-26T04:15:17;6.05;;;4.95;;
8831;SDS011;4452;50.756;4.472;2024-02-26T04:17:43;5.88;;;4.05;;
8831;SDS011;4452;50.756;4.472;2024-02-26T04:20:12;6.13;;;4.38;;
8831;SDS011;4452;50.756;4.472;2024-02-26T04:22:39;3.63;;;3.33;;
8831;SDS011;4452;50.756;4.472;2024-02-26T04:25:05;3.97;;;3.58;;
8831;SDS011;4452;50.756;4.472;2024-02-26T04:27:31;9.95;;;5.05;;
8831;SDS011;4452;50.756;4.472;2024-02-26T04:29:56;5.50;;;4.93;;
8831;SDS011;4452;50.756;4.472;2024-02-26T04:32:22;4.22;;;3.60;;
8831;SDS011;4452;50.756;4.472;2024-02-26T04:34:48;5.95;;;5.10;;
8831;SDS011;4452;50.756;4.472;2024-02-26T04:37:13;7.57;;;5.97;;
8831;SDS011;4452;50.756;4.472;2024-02-26T04:39:39;5.55;;;4.57;;
8831;SDS011;4452;50.756;4.472;2024-02-26T04:42:04;4.93;;;4.53;;
8831;SDS011;4452;50.756;4.472;2024-02-26T04:44:30;4.78;;;4.38;;
8831;SDS011;4452;50.756;4.472;2024-02-26T04:46:56;4.57;;;4.13;;
8831;SDS011;4452;50.756;4.472;2024-02-26T04:49:21;7.05;;;6.00;;
8831;SDS011;4452;50.756;4.472;2024-02-26T04:51:47;7.57;;;6.40;;
8831;SDS011;4452;50.756;4.472;2024-02-26T04:54:13;7.20;;;6.43;;
8831;SDS011;4452;50.756;4.472;2024-02-26T04:56:39;172.50;;;15.85;;
8831;SDS011;4452;50.756;4.472;2024-02-26T04:59:04;11.00;;;6.13;;
8831;SDS011;4452;50.756;4.472;2024-02-26T05:01:30;15.98;;;4.68;;
8831;SDS011;4452;50.756;4.472;2024-02-26T05:03:56;11.07;;;6.15;;
8831;SDS011;4452;50.756;4.472;2024-02-26T05:06:21;28.30;;;6.07;;
8831;SDS011;4452;50.756;4.472;2024-02-26T05:08:47;6.18;;;4.95;;
8831;SDS011;4452;50.756;4.472;2024-02-26T05:11:12;6.35;;;5.07;;
8831;SDS011;4452;50.756;4.472;2024-02-26T05:13:38;4.82;;;4.18;;
8831;SDS011;4452;50.756;4.472;2024-02-26T05:16:04;6.50;;;5.82;;
8831;SDS011;4452;50.756;4.472;2024-02-26T05:18:30;4.43;;;4.03;;
8831;SDS011;4452;50.756;4.472;2024-02-26T05:20:56;8.27;;;6.05;;
8831;SDS011;4452;50.756;4.472;2024-02-26T05:23:21;8.70;;;6.38;;
8831;SDS011;4452;50.756;4.472;2024-02-26T05:25:48;8.35;;;5.93;;
8831;SDS011;4452;50.756;4.472;2024-02-26T05:28:14;24.48;;;7.78;;
8831;SDS011;4452;50.756;4.472;2024-02-26T05:30:41;9.32;;;5.60;;
8831;SDS011;4452;50.756;4.472;2024-02-26T05:33:07;11.52;;;7.35;;
8831;SDS011;4452;50.756;4.472;2024-02-26T05:35:33;7.97;;;5.97;;
8831;SDS011;4452;50.756;4.472;2024-02-26T05:37:58;8.68;;;6.35;;
8831;SDS011;4452;50.756;4.472;2024-02-26T05:40:24;6.68;;;5.65;;
8831;SDS011;4452;50.756;4.472;2024-02-26T05:42:50;24.33;;;11.02;;
8831;SDS011;4452;50.756;4.472;2024-02-26T05:45:15;9.35;;;8.20;;
8831;SDS011;4452;50.756;4.472;2024-02-26T05:47:41;13.20;;;10.35;;
8831;SDS011;4452;50.756;4.472;2024-02-26T05:50:10;22.60;;;11.13;;
8831;SDS011;4452;50.756;4.472;2024-02-26T05:52:39;13.13;;;8.25;;
8831;SDS011;4452;50.756;4.472;2024-02-26T05:55:05;57.58;;;16.40;;
8831;SDS011;4452;50.756;4.472;2024-02-26T05:57:32;15.80;;;9.80;;
8831;SDS011;4452;50.756;4.472;2024-02-26T05:59:59;12.63;;;9.15;;
8831;SDS011;4452;50.756;4.472;2024-02-26T06:02:31;14.60;;;10.00;;
8831;SDS011;4452;50.756;4.472;2024-02-26T06:04:58;10.00;;;7.80;;
8831;SDS011;4452;50.756;4.472;2024-02-26T06:07:24;17.85;;;9.52;;
8831;SDS011;4452;50.756;4.472;2024-02-26T06:09:50;11.02;;;8.55;;
8831;SDS011;4452;50.756;4.472;2024-02-26T06:12:16;18.73;;;12.45;;
8831;SDS011;4452;50.756;4.472;2024-02-26T06:14:42;11.82;;;8.23;;
8831;SDS011;4452;50.756;4.472;2024-02-26T06:17:08;12.20;;;9.07;;
8831;SDS011;4452;50.756;4.472;2024-02-26T06:19:34;27.83;;;10.65;;
8831;SDS011;4452;50.756;4.472;2024-02-26T06:21:59;13.90;;;9.57;;
8831;SDS011;4452;50.756;4.472;2024-02-26T06:24:25;13.18;;;9.43;;
8831;SDS011;4452;50.756;4.472;2024-02-26T06:26:51;12.68;;;7.43;;
8831;SDS011;4452;50.756;4.472;2024-02-26T06:29:17;9.82;;;7.50;;
8831;SDS011;4452;50.756;4.472;2024-02-26T06:31:42;20.52;;;15.18;;
8831;SDS011;4452;50.756;4.472;2024-02-26T06:34:08;16.65;;;11.80;;
8831;SDS011;4452;50.756;4.472;2024-02-26T06:36:34;19.67;;;13.98;;
8831;SDS011;4452;50.756;4.472;2024-02-26T06:39:00;13.20;;;10.88;;
8831;SDS011;4452;50.756;4.472;2024-02-26T06:41:26;12.73;;;9.70;;
8831;SDS011;4452;50.756;4.472;2024-02-26T06:43:56;25.80;;;14.38;;
8831;SDS011;4452;50.756;4.472;2024-02-26T06:46:24;13.15;;;10.25;;
8831;SDS011;4452;50.756;4.472;2024-02-26T06:48:51;11.80;;;9.43;;
8831;SDS011;4452;50.756;4.472;2024-02-26T06:51:17;18.55;;;12.20;;
8831;SDS011;4452;50.756;4.472;2024-02-26T06:53:43;12.63;;;10.27;;
8831;SDS011;4452;50.756;4.472;2024-02-26T06:56:08;17.75;;;11.13;;
8831;SDS011;4452;50.756;4.472;2024-02-26T06:58:34;23.27;;;14.90;;
8831;SDS011;4452;50.756;4.472;2024-02-26T07:01:00;23.58;;;17.00;;
8831;SDS011;4452;50.756;4.472;2024-02-26T07:03:25;30.38;;;17.25;;
8831;SDS011;4452;50.756;4.472;2024-02-26T07:05:51;17.38;;;11.73;;
8831;SDS011;4452;50.756;4.472;2024-02-26T07:08:17;19.20;;;13.80;;
8831;SDS011;4452;50.756;4.472;2024-02-26T07:10:43;19.73;;;13.77;;
8831;SDS011;4452;50.756;4.472;2024-02-26T07:13:09;33.15;;;16.25;;
8831;SDS011;4452;50.756;4.472;2024-02-26T07:15:34;13.00;;;11.35;;
8831;SDS011;4452;50.756;4.472;2024-02-26T07:18:00;16.65;;;12.00;;
8831;SDS011;4452;50.756;4.472;2024-02-26T07:20:29;17.15;;;12.32;;
8831;SDS011;4452;50.756;4.472;2024-02-26T07:22:55;20.70;;;15.15;;
8831;SDS011;4452;50.756;4.472;2024-02-26T07:25:21;22.88;;;14.68;;
8831;SDS011;4452;50.756;4.472;2024-02-26T07:27:47;49.42;;;17.10;;
8831;SDS011;4452;50.756;4.472;2024-02-26T07:30:13;22.73;;;15.68;;
8831;SDS011;4452;50.756;4.472;2024-02-26T07:32:39;37.90;;;15.73;;
8831;SDS011;4452;50.756;4.472;2024-02-26T07:35:05;24.30;;;15.77;;
8831;SDS011;4452;50.756;4.472;2024-02-26T07:37:31;23.88;;;16.45;;
8831;SDS011;4452;50.756;4.472;2024-02-26T07:39:56;27.50;;;18.42;;
8831;SDS011;4452;50.756;4.472;2024-02-26T07:42:22;20.77;;;15.27;;
8831;SDS011;4452;50.756;4.472;2024-02-26T07:44:48;29.60;;;16.95;;
8831;SDS011;4452;50.756;4.472;2024-02-26T07:47:13;22.60;;;15.75;;
8831;SDS011;4452;50.756;4.472;2024-02-26T07:49:39;19.67;;;14.57;;
8831;SDS011;4452;50.756;4.472;2024-02-26T07:52:05;22.85;;;15.18;;
8831;SDS011;4452;50.756;4.472;2024-02-26T07:54:31;15.90;;;13.20;;
8831;SDS011;4452;50.756;4.472;2024-02-26T07:56:57;32.08;;;19.35;;
8831;SDS011;4452;50.756;4.472;2024-02-26T07:59:23;39.88;;;16.23;;
8831;SDS011;4452;50.756;4.472;2024-02-26T08:01:52;20.98;;;13.57;;
8831;SDS011;4452;50.756;4.472;2024-02-26T08:04:18;15.88;;;11.30;;
8831;SDS011;4452;50.756;4.472;2024-02-26T08:06:43;28.50;;;16.27;;
8831;SDS011;4452;50.756;4.472;2024-02-26T08:09:09;22.35;;;15.35;;
8831;SDS011;4452;50.756;4.472;2024-02-26T08:11:35;18.33;;;12.23;;
8831;SDS011;4452;50.756;4.472;2024-02-26T08:14:00;40.40;;;19.92;;
8831;SDS011;4452;50.756;4.472;2024-02-26T08:16:26;17.08;;;11.15;;
8831;SDS011;4452;50.756;4.472;2024-02-26T08:18:52;15.57;;;13.02;;
8831;SDS011;4452;50.756;4.472;2024-02-26T08:21:18;17.58;;;12.15;;
8831;SDS011;4452;50.756;4.472;2024-02-26T08:23:43;21.30;;;14.00;;
8831;SDS011;4452;50.756;4.472;2024-02-26T08:26:09;31.83;;;20.90;;
8831;SDS011;4452;50.756;4.472;2024-02-26T08:28:36;24.33;;;17.45;;
8831;SDS011;4452;50.756;4.472;2024-02-26T08:31:03;14.05;;;11.45;;
8831;SDS011;4452;50.756;4.472;2024-02-26T08:33:28;16.52;;;12.57;;
8831;SDS011;4452;50.756;4.472;2024-02-26T08:35:55;27.55;;;17.98;;
8831;SDS011;4452;50.756;4.472;2024-02-26T08:38:20;21.42;;;15.57;;
8831;SDS011;4452;50.756;4.472;2024-02-26T08:40:46;19.83;;;14.27;;
8831;SDS011;4452;50.756;4.472;2024-02-26T08:43:11;24.80;;;16.40;;
8831;SDS011;4452;50.756;4.472;2024-02-26T08:45:37;17.83;;;12.95;;
8831;SDS011;4452;50.756;4.472;2024-02-26T08:48:03;10.15;;;8.18;;
8831;SDS011;4452;50.756;4.472;2024-02-26T08:50:28;20.60;;;12.63;;
8831;SDS011;4452;50.756;4.472;2024-02-26T08:52:54;11.30;;;9.88;;
8831;SDS011;4452;50.756;4.472;2024-02-26T08:55:20;20.55;;;14.07;;
8831;SDS011;4452;50.756;4.472;2024-02-26T08:57:51;16.88;;;12.63;;
8831;SDS011;4452;50.756;4.472;2024-02-26T09:00:19;26.50;;;16.10;;
8831;SDS011;4452;50.756;4.472;2024-02-26T09:02:47;19.48;;;14.23;;
8831;SDS011;4452;50.756;4.472;2024-02-26T09:05:15;24.02;;;15.63;;
8831;SDS011;4452;50.756;4.472;2024-02-26T09:07:42;17.88;;;11.88;;
8831;SDS011;4452;50.756;4.472;2024-02-26T09:10:07;20.13;;;13.73;;
8831;SDS011;4452;50.756;4.472;2024-02-26T09:12:35;21.35;;;15.85;;
8831;SDS011;4452;50.756;4.472;2024-02-26T09:15:02;12.05;;;10.48;;
8831;SDS011;4452;50.756;4.472;2024-02-26T09:17:30;19.35;;;14.25;;
8831;SDS011;4452;50.756;4.472;2024-02-26T09:19:58;16.05;;;12.02;;
8831;SDS011;4452;50.756;4.472;2024-02-26T09:22:27;17.08;;;11.77;;
8831;SDS011;4452;50.756;4.472;2024-02-26T09:24:55;21.15;;;15.98;;
8831;SDS011;4452;50.756;4.472;2024-02-26T09:27:22;23.23;;;16.63;;
8831;SDS011;4452;50.756;4.472;2024-02-26T09:29:51;18.80;;;11.73;;
8831;SDS011;4452;50.756;4.472;2024-02-26T09:32:19;17.05;;;12.10;;
8831;SDS011;4452;50.756;4.472;2024-02-26T09:34:47;17.30;;;13.57;;
8831;SDS011;4452;50.756;4.472;2024-02-26T09:37:15;14.27;;;11.70;;
8831;SDS011;4452;50.756;4.472;2024-02-26T09:39:43;12.10;;;10.50;;
8831;SDS011;4452;50.756;4.472;2024-02-26T09:42:12;10.88;;;8.80;;
8831;SDS011;4452;50.756;4.472;2024-02-26T09:44:40;11.80;;;10.48;;
8831;SDS011;4452;50.756;4.472;2024-02-26T09:47:09;16.88;;;10.20;;
8831;SDS011;4452;50.756;4.472;2024-02-26T09:49:37;11.02;;;8.88;;
8831;SDS011;4452;50.756;4.472;2024-02-26T09:52:04;12.27;;;9.23;;
8831;SDS011;4452;50.756;4.472;2024-02-26T09:54:31;19.10;;;14.95;;
8831;SDS011;4452;50.756;4.472;2024-02-26T09:56:59;12.85;;;9.60;;
8831;SDS011;4452;50.756;4.472;2024-02-26T09:59:27;16.02;;;11.18;;
8831;SDS011;4452;50.756;4.472;2024-02-26T10:01:54;10.93;;;9.52;;
8831;SDS011;4452;50.756;4.472;2024-02-26T10:04:23;9.60;;;8.60;;
8831;SDS011;4452;50.756;4.472;2024-02-26T10:06:50;9.52;;;7.40;;
8831;SDS011;4452;50.756;4.472;2024-02-26T10:09:17;20.42;;;11.43;;
8831;SDS011;4452;50.756;4.472;2024-02-26T10:11:44;10.18;;;9.18;;
8831;SDS011;4452;50.756;4.472;2024-02-26T10:14:14;26.63;;;12.43;;
8831;SDS011;4452;50.756;4.472;2024-02-26T10:16:40;18.15;;;11.13;;
8831;SDS011;4452;50.756;4.472;2024-02-26T10:19:07;17.65;;;11.95;;
8831;SDS011;4452;50.756;4.472;2024-02-26T10:21:32;14.60;;;11.35;;
8831;SDS011;4452;50.756;4.472;2024-02-26T10:23:58;10.43;;;9.32;;
8831;SDS011;4452;50.756;4.472;2024-02-26T10:26:24;10.13;;;8.77;;
8831;SDS011;4452;50.756;4.472;2024-02-26T10:28:49;13.02;;;8.43;;
8831;SDS011;4452;50.756;4.472;2024-02-26T10:31:15;10.02;;;7.40;;
8831;SDS011;4452;50.756;4.472;2024-02-26T10:33:42;11.98;;;9.55;;
8831;SDS011;4452;50.756;4.472;2024-02-26T10:36:09;10.38;;;9.38;;
8831;SDS011;4452;50.756;4.472;2024-02-26T10:38:35;10.80;;;9.57;;
8831;SDS011;4452;50.756;4.472;2024-02-26T10:41:02;16.05;;;11.20;;
8831;SDS011;4452;50.756;4.472;2024-02-26T10:43:28;10.50;;;7.38;;
8831;SDS011;4452;50.756;4.472;2024-02-26T10:45:55;13.23;;;11.00;;
8831;SDS011;4452;50.756;4.472;2024-02-26T10:48:20;8.57;;;7.32;;
8831;SDS011;4452;50.756;4.472;2024-02-26T10:50:47;15.30;;;8.30;;
8831;SDS011;4452;50.756;4.472;2024-02-26T10:53:16;8.02;;;7.10;;
8831;SDS011;4452;50.756;4.472;2024-02-26T10:55:43;8.32;;;7.47;;
8831;SDS011;4452;50.756;4.472;2024-02-26T10:58:18;7.82;;;7.05;;
8831;SDS011;4452;50.756;4.472;2024-02-26T11:00:45;8.63;;;7.35;;
8831;SDS011;4452;50.756;4.472;2024-02-26T11:03:13;7.15;;;6.45;;
8831;SDS011;4452;50.756;4.472;2024-02-26T11:05:42;11.23;;;9.43;;
8831;SDS011;4452;50.756;4.472;2024-02-26T11:08:10;8.98;;;7.38;;
8831;SDS011;4452;50.756;4.472;2024-02-26T11:10:36;12.25;;;8.23;;
8831;SDS011;4452;50.756;4.472;2024-02-26T11:13:03;6.93;;;6.30;;
8831;SDS011;4452;50.756;4.472;2024-02-26T11:15:31;8.32;;;7.50;;
8831;SDS011;4452;50.756;4.472;2024-02-26T11:17:58;10.35;;;9.25;;
8831;SDS011;4452;50.756;4.472;2024-02-26T11:20:25;11.07;;;9.75;;
8831;SDS011;4452;50.756;4.472;2024-02-26T11:22:54;12.77;;;9.70;;
8831;SDS011;4452;50.756;4.472;2024-02-26T11:25:20;9.32;;;7.85;;
8831;SDS011;4452;50.756;4.472;2024-02-26T11:27:49;7.43;;;6.72;;
8831;SDS011;4452;50.756;4.472;2024-02-26T11:30:17;7.72;;;6.85;;
8831;SDS011;4452;50.756;4.472;2024-02-26T11:32:44;9.13;;;8.18;;
8831;SDS011;4452;50.756;4.472;2024-02-26T11:35:12;10.20;;;9.02;;
8831;SDS011;4452;50.756;4.472;2024-02-26T11:37:41;8.25;;;7.47;;
8831;SDS011;4452;50.756;4.472;2024-02-26T11:40:11;15.10;;;9.70;;
8831;SDS011;4452;50.756;4.472;2024-02-26T11:42:43;10.85;;;7.25;;
8831;SDS011;4452;50.756;4.472;2024-02-26T11:50:34;6.75;;;6.07;;
8831;SDS011;4452;50.756;4.472;2024-02-26T11:53:20;9.85;;;8.85;;
8831;SDS011;4452;50.756;4.472;2024-02-26T11:58:48;9.40;;;8.45;;
8831;SDS011;4452;50.756;4.472;2024-02-26T12:04:13;12.07;;;9.45;;
8831;SDS011;4452;50.756;4.472;2024-02-26T12:06:58;8.35;;;7.57;;
8831;SDS011;4452;50.756;4.472;2024-02-26T12:09:39;9.43;;;8.13;;
8831;SDS011;4452;50.756;4.472;2024-02-26T12:12:06;9.88;;;8.88;;
8831;SDS011;4452;50.756;4.472;2024-02-26T12:14:34;8.57;;;7.82;;
8831;SDS011;4452;50.756;4.472;2024-02-26T12:17:03;8.55;;;7.75;;
8831;SDS011;4452;50.756;4.472;2024-02-26T12:19:32;7.25;;;5.55;;
8831;SDS011;4452;50.756;4.472;2024-02-26T12:22:00;7.40;;;6.75;;
8831;SDS011;4452;50.756;4.472;2024-02-26T12:24:25;15.32;;;8.30;;
8831;SDS011;4452;50.756;4.472;2024-02-26T12:26:51;7.55;;;6.85;;
8831;SDS011;4452;50.756;4.472;2024-02-26T12:29:16;8.05;;;4.95;;
8831;SDS011;4452;50.756;4.472;2024-02-26T12:31:42;6.20;;;5.70;;
8831;SDS011;4452;50.756;4.472;2024-02-26T12:34:09;6.13;;;5.63;;
8831;SDS011;4452;50.756;4.472;2024-02-26T12:36:35;9.02;;;7.60;;
8831;SDS011;4452;50.756;4.472;2024-02-26T12:39:04;7.60;;;6.88;;
8831;SDS011;4452;50.756;4.472;2024-02-26T12:41:34;7.78;;;6.97;;
8831;SDS011;4452;50.756;4.472;2024-02-26T12:44:00;9.38;;;8.48;;
8831;SDS011;4452;50.756;4.472;2024-02-26T12:46:26;28.85;;;9.70;;
8831;SDS011;4452;50.756;4.472;2024-02-26T12:48:54;10.48;;;7.90;;
8831;SDS011;4452;50.756;4.472;2024-02-26T12:51:23;7.95;;;7.15;;
8831;SDS011;4452;50.756;4.472;2024-02-26T12:53:49;5.90;;;5.43;;
8831;SDS011;4452;50.756;4.472;2024-02-26T12:56:17;8.52;;;7.63;;
8831;SDS011;4452;50.756;4.472;2024-02-26T12:58:43;9.02;;;8.13;;
8831;SDS011;4452;50.756;4.472;2024-02-26T13:01:13;8.80;;;6.78;;
8831;SDS011;4452;50.756;4.472;2024-02-26T13:03:40;8.93;;;6.18;;
8831;SDS011;4452;50.756;4.472;2024-02-26T13:06:07;8.35;;;7.50;;
8831;SDS011;4452;50.756;4.472;2024-02-26T13:08:33;6.28;;;5.68;;
8831;SDS011;4452;50.756;4.472;2024-02-26T13:10:59;8.77;;;7.85;;
8831;SDS011;4452;50.756;4.472;2024-02-26T13:13:26;10.57;;;8.48;;
8831;SDS011;4452;50.756;4.472;2024-02-26T13:16:04;13.35;;;9.77;;
8831;SDS011;4452;50.756;4.472;2024-02-26T13:18:34;10.38;;;8.57;;
8831;SDS011;4452;50.756;4.472;2024-02-26T13:21:23;8.77;;;7.78;;
8831;SDS011;4452;50.756;4.472;2024-02-26T13:23:52;10.15;;;9.13;;
8831;SDS011;4452;50.756;4.472;2024-02-26T13:26:22;11.68;;;8.18;;
8831;SDS011;4452;50.756;4.472;2024-02-26T13:29:01;6.07;;;5.57;;
8831;SDS011;4452;50.756;4.472;2024-02-26T13:31:30;11.82;;;8.30;;
8831;SDS011;4452;50.756;4.472;2024-02-26T13:34:01;7.22;;;6.50;;
8831;SDS011;4452;50.756;4.472;2024-02-26T13:36:29;7.10;;;6.43;;
8831;SDS011;4452;50.756;4.472;2024-02-26T13:39:00;10.15;;;8.90;;
8831;SDS011;4452;50.756;4.472;2024-02-26T13:41:32;9.20;;;8.38;;
8831;SDS011;4452;50.756;4.472;2024-02-26T13:43:58;7.45;;;6.72;;
8831;SDS011;4452;50.756;4.472;2024-02-26T13:46:23;8.00;;;7.20;;
8831;SDS011;4452;50.756;4.472;2024-02-26T13:48:49;8.68;;;7.07;;
8831;SDS011;4452;50.756;4.472;2024-02-26T13:51:15;12.73;;;11.43;;
8831;SDS011;4452;50.756;4.472;2024-02-26T13:53:42;11.18;;;8.23;;
8831;SDS011;4452;50.756;4.472;2024-02-26T13:56:07;10.98;;;9.88;;
8831;SDS011;4452;50.756;4.472;2024-02-26T13:58:34;17.35;;;13.68;;
8831;SDS011;4452;50.756;4.472;2024-02-26T14:01:00;13.13;;;10.18;;
8831;SDS011;4452;50.756;4.472;2024-02-26T14:03:28;14.10;;;12.38;;
8831;SDS011;4452;50.756;4.472;2024-02-26T14:05:54;17.30;;;15.35;;
8831;SDS011;4452;50.756;4.472;2024-02-26T14:08:19;12.32;;;10.95;;
8831;SDS011;4452;50.756;4.472;2024-02-26T14:10:45;8.95;;;8.00;;
8831;SDS011;4452;50.756;4.472;2024-02-26T14:13:11;19.98;;;15.77;;
8831;SDS011;4452;50.756;4.472;2024-02-26T14:15:37;17.00;;;14.35;;
8831;SDS011;4452;50.756;4.472;2024-02-26T14:18:04;17.40;;;13.55;;
8831;SDS011;4452;50.756;4.472;2024-02-26T14:20:30;50.38;;;16.08;;
8831;SDS011;4452;50.756;4.472;2024-02-26T14:22:55;43.67;;;17.10;;
8831;SDS011;4452;50.756;4.472;2024-02-26T14:25:21;22.80;;;11.63;;
8831;SDS011;4452;50.756;4.472;2024-02-26T14:27:47;18.42;;;15.77;;
8831;SDS011;4452;50.756;4.472;2024-02-26T14:30:13;11.65;;;10.45;;
8831;SDS011;4452;50.756;4.472;2024-02-26T14:32:40;18.38;;;12.10;;
8831;SDS011;4452;50.756;4.472;2024-02-26T14:35:06;15.05;;;11.38;;
8831;SDS011;4452;50.756;4.472;2024-02-26T14:37:34;21.23;;;15.35;;
8831;SDS011;4452;50.756;4.472;2024-02-26T14:40:01;18.15;;;15.90;;
8831;SDS011;4452;50.756;4.472;2024-02-26T14:42:28;23.88;;;16.58;;
8831;SDS011;4452;50.756;4.472;2024-02-26T14:44:54;16.48;;;13.73;;
8831;SDS011;4452;50.756;4.472;2024-02-26T14:47:20;17.05;;;12.38;;
8831;SDS011;4452;50.756;4.472;2024-02-26T14:49:45;21.50;;;12.23;;
8831;SDS011;4452;50.756;4.472;2024-02-26T14:52:13;11.70;;;10.15;;
8831;SDS011;4452;50.756;4.472;2024-02-26T14:54:40;13.25;;;9.45;;
8831;SDS011;4452;50.756;4.472;2024-02-26T14:57:06;22.33;;;16.70;;
8831;SDS011;4452;50.756;4.472;2024-02-26T14:59:32;17.52;;;13.77;;
8831;SDS011;4452;50.756;4.472;2024-02-26T15:01:59;12.00;;;9.13;;
8831;SDS011;4452;50.756;4.472;2024-02-26T15:04:25;17.55;;;13.05;;
8831;SDS011;4452;50.756;4.472;2024-02-26T15:06:52;12.32;;;10.63;;
8831;SDS011;4452;50.756;4.472;2024-02-26T15:09:20;18.83;;;14.13;;
8831;SDS011;4452;50.756;4.472;2024-02-26T15:11:48;20.00;;;14.02;;